sensor_id;sensor_type;location;lat;lon;timestamp;P1;durP1;ratioP1;P2;durP2;ratioP2
6292;SDS011;3179;54.350;10.102;2023-02-12T00:01:19;6.20;;;2.03;;
6292;SDS011;3179;54.350;10.102;2023-02-12T00:03:47;2.57;;;2.30;;
6292;SDS011;3179;54.350;10.102;2023-02-12T00:06:15;3.20;;;2.60;;
6292;SDS011;3179;54.350;10.102;2023-02-12T00:08:42;3.37;;;2.07;;
6292;SDS011;3179;54.350;10.102;2023-02-12T00:11:09;1.90;;;1.80;;
6292;SDS011;3179;54.350;10.102;2023-02-12T00:13:38;2.03;;;1.93;;
6292;SDS011;3179;54.350;10.102;2023-02-12T00:16:06;2.03;;;1.90;;
6292;SDS011;3179;54.350;10.102;2023-02-12T00:18:34;2.20;;;2.00;;
6292;SDS011;3179;54.350;10.102;2023-02-12T00:21:01;1.77;;;1.67;;
6292;SDS011;3179;54.350;10.102;2023-02-12T00:23:30;1.97;;;1.60;;
6292;SDS011;3179;54.350;10.102;2023-02-12T00:25:57;1.80;;;1.70;;
6292;SDS011;3179;54.350;10.102;2023-02-12T00:28:23;1.90;;;1.80;;
6292;SDS011;3179;54.350;10.102;2023-02-12T00:30:50;1.90;;;1.80;;
6292;SDS011;3179;54.350;10.102;2023-02-12T00:33:17;2.20;;;2.00;;
6292;SDS011;3179;54.350;10.102;2023-02-12T00:35:44;1.67;;;1.57;;
6292;SDS011;3179;54.350;10.102;2023-02-12T00:38:10;1.67;;;1.57;;
6292;SDS011;3179;54.350;10.102;2023-02-12T00:40:39;1.50;;;1.40;;
6292;SDS011;3179;54.350;10.102;2023-02-12T00:43:05;1.90;;;1.50;;
6292;SDS011;3179;54.350;10.102;2023-02-12T00:45:32;1.57;;;1.47;;
6292;SDS011;3179;54.350;10.102;2023-02-12T00:47:59;2.20;;;2.00;;
6292;SDS011;3179;54.350;10.102;2023-02-12T00:50:25;1.80;;;1.70;;
6292;SDS011;3179;54.350;10.102;2023-02-12T00:52:52;3.53;;;2.00;;
6292;SDS011;3179;54.350;10.102;2023-02-12T00:55:19;2.97;;;2.30;;
6292;SDS011;3179;54.350;10.102;2023-02-12T00:57:47;2.13;;;2.03;;
6292;SDS011;3179;54.350;10.102;2023-02-12T01:00:14;2.70;;;2.50;;
6292;SDS011;3179;54.350;10.102;2023-02-12T01:02:41;2.17;;;2.07;;
6292;SDS011;3179;54.350;10.102;2023-02-12T01:05:08;4.60;;;2.53;;
6292;SDS011;3179;54.350;10.102;2023-02-12T01:07:35;2.70;;;2.50;;
6292;SDS011;3179;54.350;10.102;2023-02-12T01:10:03;4.23;;;2.60;;
6292;SDS011;3179;54.350;10.102;2023-02-12T01:12:30;2.37;;;2.17;;
6292;SDS011;3179;54.350;10.102;2023-02-12T01:14:58;2.70;;;2.50;;
6292;SDS011;3179;54.350;10.102;2023-02-12T01:17:25;2.70;;;2.50;;
6292;SDS011;3179;54.350;10.102;2023-02-12T01:19:55;2.90;;;2.37;;
6292;SDS011;3179;54.350;10.102;2023-02-12T01:22:22;2.60;;;2.40;;
6292;SDS011;3179;54.350;10.102;2023-02-12T01:24:49;2.30;;;2.10;;
6292;SDS011;3179;54.350;10.102;2023-02-12T01:27:16;3.33;;;2.70;;
6292;SDS011;3179;54.350;10.102;2023-02-12T01:29:42;2.50;;;2.20;;
6292;SDS011;3179;54.350;10.102;2023-02-12T01:32:11;3.50;;;2.90;;
6292;SDS011;3179;54.350;10.102;2023-02-12T01:34:37;2.73;;;2.53;;
6292;SDS011;3179;54.350;10.102;2023-02-12T01:37:04;4.17;;;2.60;;
6292;SDS011;3179;54.350;10.102;2023-02-12T01:39:31;2.80;;;1.93;;
6292;SDS011;3179;54.350;10.102;2023-02-12T01:41:58;3.20;;;2.20;;
6292;SDS011;3179;54.350;10.102;2023-02-12T01:44:27;1.63;;;1.53;;
6292;SDS011;3179;54.350;10.102;2023-02-12T01:46:55;4.73;;;2.50;;
6292;SDS011;3179;54.350;10.102;2023-02-12T01:49:25;3.13;;;1.87;;
6292;SDS011;3179;54.350;10.102;2023-02-12T01:51:58;3.70;;;2.10;;
6292;SDS011;3179;54.350;10.102;2023-02-12T01:54:28;5.30;;;2.90;;
6292;SDS011;3179;54.350;10.102;2023-02-12T01:56:55;4.40;;;2.33;;
6292;SDS011;3179;54.350;10.102;2023-02-12T01:59:22;5.53;;;2.03;;
6292;SDS011;3179;54.350;10.102;2023-02-12T02:01:49;3.03;;;1.77;;
6292;SDS011;3179;54.350;10.102;2023-02-12T02:04:18;3.77;;;2.10;;
6292;SDS011;3179;54.350;10.102;2023-02-12T02:06:51;8.20;;;2.10;;
6292;SDS011;3179;54.350;10.102;2023-02-12T02:09:21;3.60;;;2.00;;
6292;SDS011;3179;54.350;10.102;2023-02-12T02:11:48;10.10;;;2.10;;
6292;SDS011;3179;54.350;10.102;2023-02-12T02:14:32;3.13;;;1.80;;
6292;SDS011;3179;54.350;10.102;2023-02-12T02:17:02;2.60;;;1.50;;
6292;SDS011;3179;54.350;10.102;2023-02-12T02:20:01;2.53;;;2.17;;
6292;SDS011;3179;54.350;10.102;2023-02-12T02:22:43;8.13;;;2.20;;
6292;SDS011;3179;54.350;10.102;2023-02-12T02:25:45;6.43;;;1.83;;
6292;SDS011;3179;54.350;10.102;2023-02-12T02:31:28;2.70;;;1.80;;
6292;SDS011;3179;54.350;10.102;2023-02-12T02:33:58;6.47;;;2.50;;
6292;SDS011;3179;54.350;10.102;2023-02-12T02:36:34;3.83;;;1.90;;
6292;SDS011;3179;54.350;10.102;2023-02-12T02:39:07;7.20;;;2.70;;
6292;SDS011;3179;54.350;10.102;2023-02-12T02:41:45;6.67;;;2.63;;
6292;SDS011;3179;54.350;10.102;2023-02-12T02:44:22;5.53;;;2.37;;
6292;SDS011;3179;54.350;10.102;2023-02-12T02:46:57;8.80;;;3.17;;
6292;SDS011;3179;54.350;10.102;2023-02-12T02:49:27;5.80;;;2.47;;
6292;SDS011;3179;54.350;10.102;2023-02-12T02:52:00;7.77;;;2.77;;
6292;SDS011;3179;54.350;10.102;2023-02-12T02:54:32;7.97;;;2.40;;
6292;SDS011;3179;54.350;10.102;2023-02-12T02:57:04;4.77;;;2.80;;
6292;SDS011;3179;54.350;10.102;2023-02-12T02:59:34;4.97;;;1.97;;
6292;SDS011;3179;54.350;10.102;2023-02-12T03:02:06;5.77;;;2.50;;
6292;SDS011;3179;54.350;10.102;2023-02-12T03:04:37;5.30;;;2.40;;
6292;SDS011;3179;54.350;10.102;2023-02-12T03:07:09;7.80;;;2.60;;
6292;SDS011;3179;54.350;10.102;2023-02-12T03:09:40;7.23;;;2.73;;
6292;SDS011;3179;54.350;10.102;2023-02-12T03:12:11;9.03;;;2.73;;
6292;SDS011;3179;54.350;10.102;2023-02-12T03:14:43;9.63;;;2.80;;
6292;SDS011;3179;54.350;10.102;2023-02-12T03:17:16;7.33;;;3.33;;
6292;SDS011;3179;54.350;10.102;2023-02-12T03:19:48;9.40;;;3.20;;
6292;SDS011;3179;54.350;10.102;2023-02-12T03:22:19;7.83;;;2.50;;
6292;SDS011;3179;54.350;10.102;2023-02-12T03:24:52;10.13;;;2.83;;
6292;SDS011;3179;54.350;10.102;2023-02-12T03:27:25;8.67;;;2.60;;
6292;SDS011;3179;54.350;10.102;2023-02-12T03:29:54;7.87;;;3.23;;
6292;SDS011;3179;54.350;10.102;2023-02-12T03:32:26;10.47;;;3.30;;
6292;SDS011;3179;54.350;10.102;2023-02-12T03:34:58;9.83;;;2.83;;
6292;SDS011;3179;54.350;10.102;2023-02-12T03:37:35;10.23;;;3.00;;
6292;SDS011;3179;54.350;10.102;2023-02-12T03:40:06;8.63;;;3.30;;
6292;SDS011;3179;54.350;10.102;2023-02-12T03:42:40;9.23;;;2.70;;
6292;SDS011;3179;54.350;10.102;2023-02-12T03:45:15;7.83;;;2.87;;
6292;SDS011;3179;54.350;10.102;2023-02-12T03:47:55;7.90;;;2.93;;
6292;SDS011;3179;54.350;10.102;2023-02-12T03:50:28;12.50;;;3.13;;
6292;SDS011;3179;54.350;10.102;2023-02-12T03:53:02;13.20;;;3.50;;
6292;SDS011;3179;54.350;10.102;2023-02-12T03:55:29;11.80;;;3.23;;
6292;SDS011;3179;54.350;10.102;2023-02-12T03:58:00;10.43;;;3.10;;
6292;SDS011;3179;54.350;10.102;2023-02-12T04:00:28;11.60;;;3.60;;
6292;SDS011;3179;54.350;10.102;2023-02-12T04:02:57;11.13;;;3.60;;
6292;SDS011;3179;54.350;10.102;2023-02-12T04:05:24;12.47;;;3.70;;
6292;SDS011;3179;54.350;10.102;2023-02-12T04:07:53;8.27;;;3.33;;
6292;SDS011;3179;54.350;10.102;2023-02-12T04:10:25;20.73;;;5.03;;
6292;SDS011;3179;54.350;10.102;2023-02-12T04:12:58;13.20;;;4.13;;
6292;SDS011;3179;54.350;10.102;2023-02-12T04:15:36;14.80;;;4.90;;
6292;SDS011;3179;54.350;10.102;2023-02-12T04:18:14;13.73;;;3.83;;
6292;SDS011;3179;54.350;10.102;2023-02-12T04:20:47;14.17;;;4.57;;
6292;SDS011;3179;54.350;10.102;2023-02-12T04:23:22;14.97;;;4.00;;
6292;SDS011;3179;54.350;10.102;2023-02-12T04:26:05;16.60;;;4.00;;
6292;SDS011;3179;54.350;10.102;2023-02-12T04:28:42;15.90;;;4.70;;
6292;SDS011;3179;54.350;10.102;2023-02-12T04:31:19;14.47;;;3.73;;
6292;SDS011;3179;54.350;10.102;2023-02-12T04:33:59;16.03;;;4.50;;
6292;SDS011;3179;54.350;10.102;2023-02-12T04:36:32;16.80;;;4.10;;
6292;SDS011;3179;54.350;10.102;2023-02-12T04:39:04;14.90;;;3.87;;
6292;SDS011;3179;54.350;10.102;2023-02-12T04:41:35;15.30;;;5.00;;
6292;SDS011;3179;54.350;10.102;2023-02-12T04:44:12;15.50;;;4.90;;
6292;SDS011;3179;54.350;10.102;2023-02-12T04:46:40;17.60;;;4.80;;
6292;SDS011;3179;54.350;10.102;2023-02-12T04:49:09;10.03;;;4.10;;
6292;SDS011;3179;54.350;10.102;2023-02-12T04:51:39;13.00;;;4.37;;
6292;SDS011;3179;54.350;10.102;2023-02-12T04:54:07;9.23;;;3.57;;
6292;SDS011;3179;54.350;10.102;2023-02-12T04:56:33;9.57;;;4.13;;
6292;SDS011;3179;54.350;10.102;2023-02-12T04:59:00;11.23;;;3.63;;
6292;SDS011;3179;54.350;10.102;2023-02-12T05:01:27;12.17;;;4.00;;
6292;SDS011;3179;54.350;10.102;2023-02-12T05:03:54;7.90;;;3.50;;
6292;SDS011;3179;54.350;10.102;2023-02-12T05:06:22;12.50;;;3.90;;
6292;SDS011;3179;54.350;10.102;2023-02-12T05:08:48;9.20;;;2.90;;
6292;SDS011;3179;54.350;10.102;2023-02-12T05:11:17;7.13;;;2.87;;
6292;SDS011;3179;54.350;10.102;2023-02-12T05:13:47;13.00;;;3.33;;
6292;SDS011;3179;54.350;10.102;2023-02-12T05:16:14;10.90;;;3.30;;
6292;SDS011;3179;54.350;10.102;2023-02-12T05:18:41;5.77;;;2.77;;
6292;SDS011;3179;54.350;10.102;2023-02-12T05:21:09;10.23;;;4.00;;
6292;SDS011;3179;54.350;10.102;2023-02-12T05:23:38;7.30;;;3.00;;
6292;SDS011;3179;54.350;10.102;2023-02-12T05:26:06;6.63;;;3.30;;
6292;SDS011;3179;54.350;10.102;2023-02-12T05:28:35;14.57;;;3.97;;
6292;SDS011;3179;54.350;10.102;2023-02-12T05:31:03;9.60;;;4.00;;
6292;SDS011;3179;54.350;10.102;2023-02-12T05:33:31;10.13;;;3.60;;
6292;SDS011;3179;54.350;10.102;2023-02-12T05:36:01;7.97;;;3.77;;
6292;SDS011;3179;54.350;10.102;2023-02-12T05:38:29;5.00;;;3.00;;
6292;SDS011;3179;54.350;10.102;2023-02-12T05:41:01;7.83;;;3.30;;
6292;SDS011;3179;54.350;10.102;2023-02-12T05:43:28;7.90;;;3.37;;
6292;SDS011;3179;54.350;10.102;2023-02-12T05:45:57;9.07;;;3.20;;
6292;SDS011;3179;54.350;10.102;2023-02-12T05:48:24;13.47;;;3.93;;
6292;SDS011;3179;54.350;10.102;2023-02-12T05:50:51;11.20;;;3.40;;
6292;SDS011;3179;54.350;10.102;2023-02-12T05:53:18;9.57;;;4.10;;
6292;SDS011;3179;54.350;10.102;2023-02-12T05:55:45;5.83;;;3.20;;
6292;SDS011;3179;54.350;10.102;2023-02-12T05:58:13;9.93;;;4.47;;
6292;SDS011;3179;54.350;10.102;2023-02-12T06:00:40;10.53;;;4.20;;
6292;SDS011;3179;54.350;10.102;2023-02-12T06:03:06;9.30;;;4.70;;
6292;SDS011;3179;54.350;10.102;2023-02-12T06:05:33;11.33;;;4.67;;
6292;SDS011;3179;54.350;10.102;2023-02-12T06:08:00;15.17;;;5.50;;
6292;SDS011;3179;54.350;10.102;2023-02-12T06:10:27;15.03;;;5.40;;
6292;SDS011;3179;54.350;10.102;2023-02-12T06:12:54;16.00;;;6.07;;
6292;SDS011;3179;54.350;10.102;2023-02-12T06:15:22;18.53;;;5.30;;
6292;SDS011;3179;54.350;10.102;2023-02-12T06:17:49;17.23;;;6.10;;
6292;SDS011;3179;54.350;10.102;2023-02-12T06:20:15;17.73;;;5.60;;
6292;SDS011;3179;54.350;10.102;2023-02-12T06:22:42;18.50;;;5.63;;
6292;SDS011;3179;54.350;10.102;2023-02-12T06:25:09;22.10;;;6.03;;
6292;SDS011;3179;54.350;10.102;2023-02-12T06:27:35;18.43;;;5.43;;
6292;SDS011;3179;54.350;10.102;2023-02-12T06:30:02;16.03;;;5.50;;
6292;SDS011;3179;54.350;10.102;2023-02-12T06:32:31;21.33;;;5.77;;
6292;SDS011;3179;54.350;10.102;2023-02-12T06:34:58;18.63;;;5.10;;
6292;SDS011;3179;54.350;10.102;2023-02-12T06:37:25;21.23;;;5.67;;
6292;SDS011;3179;54.350;10.102;2023-02-12T06:39:51;15.23;;;6.03;;
6292;SDS011;3179;54.350;10.102;2023-02-12T06:42:18;19.07;;;5.80;;
6292;SDS011;3179;54.350;10.102;2023-02-12T06:44:45;16.13;;;5.87;;
6292;SDS011;3179;54.350;10.102;2023-02-12T06:47:12;16.03;;;5.30;;
6292;SDS011;3179;54.350;10.102;2023-02-12T06:49:40;17.07;;;5.00;;
6292;SDS011;3179;54.350;10.102;2023-02-12T06:52:07;20.63;;;6.23;;
6292;SDS011;3179;54.350;10.102;2023-02-12T06:54:34;26.87;;;6.80;;
6292;SDS011;3179;54.350;10.102;2023-02-12T06:57:01;22.73;;;6.47;;
6292;SDS011;3179;54.350;10.102;2023-02-12T06:59:28;21.70;;;6.43;;
6292;SDS011;3179;54.350;10.102;2023-02-12T07:01:55;24.37;;;7.27;;
6292;SDS011;3179;54.350;10.102;2023-02-12T07:04:21;26.30;;;6.73;;
6292;SDS011;3179;54.350;10.102;2023-02-12T07:06:50;28.33;;;7.80;;
6292;SDS011;3179;54.350;10.102;2023-02-12T07:09:16;27.90;;;6.87;;
6292;SDS011;3179;54.350;10.102;2023-02-12T07:11:43;21.17;;;6.07;;
6292;SDS011;3179;54.350;10.102;2023-02-12T07:14:12;29.03;;;7.37;;
6292;SDS011;3179;54.350;10.102;2023-02-12T07:16:39;32.17;;;6.40;;
6292;SDS011;3179;54.350;10.102;2023-02-12T07:19:06;32.57;;;7.30;;
6292;SDS011;3179;54.350;10.102;2023-02-12T07:21:33;28.93;;;6.90;;
6292;SDS011;3179;54.350;10.102;2023-02-12T07:24:01;40.60;;;8.60;;
6292;SDS011;3179;54.350;10.102;2023-02-12T07:26:28;39.13;;;9.27;;
6292;SDS011;3179;54.350;10.102;2023-02-12T07:28:55;27.20;;;7.93;;
6292;SDS011;3179;54.350;10.102;2023-02-12T07:31:22;29.13;;;9.90;;
6292;SDS011;3179;54.350;10.102;2023-02-12T07:33:52;38.17;;;10.33;;
6292;SDS011;3179;54.350;10.102;2023-02-12T07:36:19;33.43;;;10.60;;
6292;SDS011;3179;54.350;10.102;2023-02-12T07:38:47;35.40;;;9.13;;
6292;SDS011;3179;54.350;10.102;2023-02-12T07:41:16;33.53;;;10.97;;
6292;SDS011;3179;54.350;10.102;2023-02-12T07:43:45;27.60;;;9.43;;
6292;SDS011;3179;54.350;10.102;2023-02-12T07:46:14;29.23;;;10.40;;
6292;SDS011;3179;54.350;10.102;2023-02-12T07:48:42;27.10;;;9.83;;
6292;SDS011;3179;54.350;10.102;2023-02-12T07:51:10;30.83;;;10.40;;
6292;SDS011;3179;54.350;10.102;2023-02-12T07:53:38;25.40;;;8.63;;
6292;SDS011;3179;54.350;10.102;2023-02-12T07:56:07;22.57;;;9.60;;
6292;SDS011;3179;54.350;10.102;2023-02-12T07:58:35;25.73;;;9.47;;
6292;SDS011;3179;54.350;10.102;2023-02-12T08:01:13;23.83;;;8.97;;
6292;SDS011;3179;54.350;10.102;2023-02-12T08:03:41;26.27;;;9.57;;
6292;SDS011;3179;54.350;10.102;2023-02-12T08:06:09;16.70;;;7.90;;
6292;SDS011;3179;54.350;10.102;2023-02-12T08:08:37;21.70;;;8.77;;
6292;SDS011;3179;54.350;10.102;2023-02-12T08:11:05;18.50;;;8.43;;
6292;SDS011;3179;54.350;10.102;2023-02-12T08:13:32;20.17;;;8.23;;
6292;SDS011;3179;54.350;10.102;2023-02-12T08:16:01;20.27;;;9.53;;
6292;SDS011;3179;54.350;10.102;2023-02-12T08:18:29;22.33;;;9.00;;
6292;SDS011;3179;54.350;10.102;2023-02-12T08:20:59;24.40;;;9.30;;
6292;SDS011;3179;54.350;10.102;2023-02-12T08:23:27;25.23;;;8.73;;
6292;SDS011;3179;54.350;10.102;2023-02-12T08:25:54;18.87;;;7.97;;
6292;SDS011;3179;54.350;10.102;2023-02-12T08:28:29;26.87;;;9.10;;
6292;SDS011;3179;54.350;10.102;2023-02-12T08:30:58;21.00;;;8.93;;
6292;SDS011;3179;54.350;10.102;2023-02-12T08:33:26;22.27;;;8.43;;
6292;SDS011;3179;54.350;10.102;2023-02-12T08:35:59;26.40;;;9.10;;
6292;SDS011;3179;54.350;10.102;2023-02-12T08:38:26;22.10;;;8.37;;
6292;SDS011;3179;54.350;10.102;2023-02-12T08:40:53;19.47;;;8.97;;
6292;SDS011;3179;54.350;10.102;2023-02-12T08:43:20;25.57;;;9.50;;
6292;SDS011;3179;54.350;10.102;2023-02-12T08:45:47;23.27;;;8.63;;
6292;SDS011;3179;54.350;10.102;2023-02-12T08:48:15;22.37;;;10.13;;
6292;SDS011;3179;54.350;10.102;2023-02-12T08:50:42;33.57;;;10.23;;
6292;SDS011;3179;54.350;10.102;2023-02-12T08:53:08;28.00;;;9.80;;
6292;SDS011;3179;54.350;10.102;2023-02-12T08:55:35;23.97;;;8.97;;
6292;SDS011;3179;54.350;10.102;2023-02-12T08:58:02;24.77;;;8.90;;
6292;SDS011;3179;54.350;10.102;2023-02-12T09:00:28;21.93;;;9.10;;
6292;SDS011;3179;54.350;10.102;2023-02-12T09:02:55;23.30;;;8.70;;
6292;SDS011;3179;54.350;10.102;2023-02-12T09:05:23;25.40;;;9.07;;
6292;SDS011;3179;54.350;10.102;2023-02-12T09:07:50;22.30;;;8.03;;
6292;SDS011;3179;54.350;10.102;2023-02-12T09:10:18;22.77;;;8.57;;
6292;SDS011;3179;54.350;10.102;2023-02-12T09:12:45;23.57;;;8.10;;
6292;SDS011;3179;54.350;10.102;2023-02-12T09:15:12;23.80;;;8.03;;
6292;SDS011;3179;54.350;10.102;2023-02-12T09:17:39;20.70;;;8.70;;
6292;SDS011;3179;54.350;10.102;2023-02-12T09:20:07;24.70;;;8.10;;
6292;SDS011;3179;54.350;10.102;2023-02-12T09:22:36;18.57;;;7.60;;
6292;SDS011;3179;54.350;10.102;2023-02-12T09:25:03;25.83;;;7.90;;
6292;SDS011;3179;54.350;10.102;2023-02-12T09:27:30;17.23;;;8.40;;
6292;SDS011;3179;54.350;10.102;2023-02-12T09:29:57;23.43;;;8.53;;
6292;SDS011;3179;54.350;10.102;2023-02-12T09:32:24;20.80;;;8.70;;
6292;SDS011;3179;54.350;10.102;2023-02-12T09:34:51;24.33;;;9.40;;
6292;SDS011;3179;54.350;10.102;2023-02-12T09:37:17;28.47;;;8.23;;
6292;SDS011;3179;54.350;10.102;2023-02-12T09:39:46;30.63;;;10.77;;
6292;SDS011;3179;54.350;10.102;2023-02-12T09:42:25;25.07;;;9.20;;
6292;SDS011;3179;54.350;10.102;2023-02-12T09:45:18;23.57;;;8.67;;
6292;SDS011;3179;54.350;10.102;2023-02-12T09:47:49;20.40;;;8.77;;
6292;SDS011;3179;54.350;10.102;2023-02-12T09:50:28;20.87;;;8.90;;
6292;SDS011;3179;54.350;10.102;2023-02-12T09:53:00;26.77;;;8.87;;
6292;SDS011;3179;54.350;10.102;2023-02-12T09:55:29;19.73;;;6.70;;
6292;SDS011;3179;54.350;10.102;2023-02-12T09:57:59;19.93;;;7.43;;
6292;SDS011;3179;54.350;10.102;2023-02-12T10:00:31;22.90;;;7.10;;
6292;SDS011;3179;54.350;10.102;2023-02-12T10:02:59;23.60;;;7.40;;
6292;SDS011;3179;54.350;10.102;2023-02-12T10:05:27;16.30;;;7.43;;
6292;SDS011;3179;54.350;10.102;2023-02-12T10:08:12;15.90;;;6.63;;
6292;SDS011;3179;54.350;10.102;2023-02-12T10:10:52;18.50;;;6.43;;
6292;SDS011;3179;54.350;10.102;2023-02-12T10:13:26;21.27;;;7.30;;
6292;SDS011;3179;54.350;10.102;2023-02-12T10:16:03;20.33;;;5.97;;
6292;SDS011;3179;54.350;10.102;2023-02-12T10:18:42;20.20;;;8.27;;
6292;SDS011;3179;54.350;10.102;2023-02-12T10:21:28;17.30;;;7.53;;
6292;SDS011;3179;54.350;10.102;2023-02-12T10:24:07;30.57;;;9.77;;
6292;SDS011;3179;54.350;10.102;2023-02-12T10:27:00;23.30;;;8.53;;
6292;SDS011;3179;54.350;10.102;2023-02-12T10:29:31;21.30;;;7.07;;
6292;SDS011;3179;54.350;10.102;2023-02-12T10:32:04;19.77;;;6.83;;
6292;SDS011;3179;54.350;10.102;2023-02-12T10:34:35;17.13;;;7.47;;
6292;SDS011;3179;54.350;10.102;2023-02-12T10:37:04;14.77;;;6.43;;
6292;SDS011;3179;54.350;10.102;2023-02-12T10:39:39;15.90;;;6.60;;
6292;SDS011;3179;54.350;10.102;2023-02-12T10:42:11;19.20;;;6.00;;
6292;SDS011;3179;54.350;10.102;2023-02-12T10:44:43;16.77;;;5.30;;
6292;SDS011;3179;54.350;10.102;2023-02-12T10:47:10;15.17;;;5.23;;
6292;SDS011;3179;54.350;10.102;2023-02-12T10:49:44;16.67;;;6.50;;
6292;SDS011;3179;54.350;10.102;2023-02-12T10:52:14;13.40;;;5.57;;
6292;SDS011;3179;54.350;10.102;2023-02-12T10:54:53;13.67;;;5.03;;
6292;SDS011;3179;54.350;10.102;2023-02-12T10:57:31;16.33;;;5.00;;
6292;SDS011;3179;54.350;10.102;2023-02-12T11:00:13;10.63;;;4.60;;
6292;SDS011;3179;54.350;10.102;2023-02-12T11:02:58;14.67;;;4.30;;
6292;SDS011;3179;54.350;10.102;2023-02-12T11:05:28;15.23;;;5.57;;
6292;SDS011;3179;54.350;10.102;2023-02-12T11:07:56;14.13;;;5.30;;
6292;SDS011;3179;54.350;10.102;2023-02-12T11:12:54;12.93;;;4.37;;
6292;SDS011;3179;54.350;10.102;2023-02-12T11:15:22;10.80;;;4.20;;
6292;SDS011;3179;54.350;10.102;2023-02-12T11:17:54;12.47;;;4.63;;
6292;SDS011;3179;54.350;10.102;2023-02-12T11:20:24;9.17;;;4.43;;
6292;SDS011;3179;54.350;10.102;2023-02-12T11:22:54;9.10;;;4.00;;
6292;SDS011;3179;54.350;10.102;2023-02-12T11:25:23;6.30;;;3.07;;
6292;SDS011;3179;54.350;10.102;2023-02-12T11:28:04;8.10;;;3.33;;
6292;SDS011;3179;54.350;10.102;2023-02-12T11:30:47;5.27;;;3.00;;
6292;SDS011;3179;54.350;10.102;2023-02-12T11:33:21;6.57;;;3.33;;
6292;SDS011;3179;54.350;10.102;2023-02-12T11:35:50;11.93;;;4.57;;
6292;SDS011;3179;54.350;10.102;2023-02-12T11:38:23;9.70;;;4.10;;
6292;SDS011;3179;54.350;10.102;2023-02-12T11:40:54;8.30;;;3.20;;
6292;SDS011;3179;54.350;10.102;2023-02-12T11:43:25;8.67;;;3.00;;
6292;SDS011;3179;54.350;10.102;2023-02-12T11:45:53;5.60;;;2.80;;
6292;SDS011;3179;54.350;10.102;2023-02-12T11:48:22;6.03;;;3.13;;
6292;SDS011;3179;54.350;10.102;2023-02-12T11:50:53;4.37;;;2.60;;
6292;SDS011;3179;54.350;10.102;2023-02-12T11:53:22;6.43;;;2.83;;
6292;SDS011;3179;54.350;10.102;2023-02-12T11:55:52;5.10;;;2.40;;
6292;SDS011;3179;54.350;10.102;2023-02-12T11:58:21;2.60;;;2.40;;
6292;SDS011;3179;54.350;10.102;2023-02-12T12:00:52;4.50;;;2.70;;
6292;SDS011;3179;54.350;10.102;2023-02-12T12:03:24;3.93;;;2.50;;
6292;SDS011;3179;54.350;10.102;2023-02-12T12:05:55;5.53;;;2.43;;
6292;SDS011;3179;54.350;10.102;2023-02-12T12:08:26;5.77;;;3.00;;
6292;SDS011;3179;54.350;10.102;2023-02-12T12:10:57;5.07;;;2.57;;
6292;SDS011;3179;54.350;10.102;2023-02-12T12:13:32;4.80;;;2.50;;
6292;SDS011;3179;54.350;10.102;2023-02-12T12:16:05;6.47;;;1.83;;
6292;SDS011;3179;54.350;10.102;2023-02-12T12:18:54;4.47;;;2.27;;
6292;SDS011;3179;54.350;10.102;2023-02-12T12:21:41;2.10;;;1.87;;
6292;SDS011;3179;54.350;10.102;2023-02-12T12:24:14;2.20;;;1.90;;
6292;SDS011;3179;54.350;10.102;2023-02-12T12:26:46;1.93;;;1.43;;
6292;SDS011;3179;54.350;10.102;2023-02-12T12:29:25;3.20;;;1.30;;
6292;SDS011;3179;54.350;10.102;2023-02-12T12:32:00;0.90;;;0.90;;
6292;SDS011;3179;54.350;10.102;2023-02-12T12:34:30;1.13;;;1.13;;
6292;SDS011;3179;54.350;10.102;2023-02-12T12:39:58;1.70;;;1.60;;
6292;SDS011;3179;54.350;10.102;2023-02-12T12:42:52;2.53;;;1.67;;
6292;SDS011;3179;54.350;10.102;2023-02-12T12:45:33;1.50;;;1.40;;
6292;SDS011;3179;54.350;10.102;2023-02-12T12:48:24;3.50;;;1.40;;
6292;SDS011;3179;54.350;10.102;2023-02-12T12:51:10;1.90;;;1.33;;
6292;SDS011;3179;54.350;10.102;2023-02-12T12:53:51;1.63;;;1.10;;
6292;SDS011;3179;54.350;10.102;2023-02-12T12:56:41;1.70;;;1.60;;
6292;SDS011;3179;54.350;10.102;2023-02-12T12:59:34;1.60;;;1.50;;
6292;SDS011;3179;54.350;10.102;2023-02-12T13:02:31;3.03;;;1.73;;
6292;SDS011;3179;54.350;10.102;2023-02-12T13:05:34;2.30;;;1.60;;
6292;SDS011;3179;54.350;10.102;2023-02-12T13:08:18;4.00;;;2.10;;
6292;SDS011;3179;54.350;10.102;2023-02-12T13:10:59;3.10;;;2.40;;
6292;SDS011;3179;54.350;10.102;2023-02-12T13:13:35;2.73;;;2.30;;
6292;SDS011;3179;54.350;10.102;2023-02-12T13:16:06;2.93;;;2.53;;
6292;SDS011;3179;54.350;10.102;2023-02-12T13:18:44;3.20;;;2.90;;
6292;SDS011;3179;54.350;10.102;2023-02-12T13:21:25;3.50;;;3.20;;
6292;SDS011;3179;54.350;10.102;2023-02-12T13:24:02;3.10;;;2.80;;
6292;SDS011;3179;54.350;10.102;2023-02-12T13:26:47;2.97;;;2.77;;
6292;SDS011;3179;54.350;10.102;2023-02-12T13:29:18;2.87;;;2.67;;
6292;SDS011;3179;54.350;10.102;2023-02-12T13:31:49;3.97;;;3.10;;
6292;SDS011;3179;54.350;10.102;2023-02-12T13:34:20;3.77;;;3.50;;
6292;SDS011;3179;54.350;10.102;2023-02-12T13:36:51;4.70;;;3.53;;
6292;SDS011;3179;54.350;10.102;2023-02-12T13:39:21;4.57;;;4.17;;
6292;SDS011;3179;54.350;10.102;2023-02-12T13:41:56;4.90;;;4.40;;
6292;SDS011;3179;54.350;10.102;2023-02-12T13:44:40;4.40;;;3.63;;
6292;SDS011;3179;54.350;10.102;2023-02-12T13:47:14;3.17;;;2.90;;
6292;SDS011;3179;54.350;10.102;2023-02-12T13:49:52;3.17;;;2.77;;
6292;SDS011;3179;54.350;10.102;2023-02-12T13:52:29;3.03;;;2.73;;
6292;SDS011;3179;54.350;10.102;2023-02-12T13:55:16;2.47;;;2.27;;
6292;SDS011;3179;54.350;10.102;2023-02-12T14:00:58;1.30;;;1.30;;
6292;SDS011;3179;54.350;10.102;2023-02-12T14:03:25;1.30;;;1.20;;
6292;SDS011;3179;54.350;10.102;2023-02-12T14:06:11;1.67;;;1.37;;
6292;SDS011;3179;54.350;10.102;2023-02-12T14:08:42;1.30;;;1.20;;
6292;SDS011;3179;54.350;10.102;2023-02-12T14:11:12;1.27;;;1.20;;
6292;SDS011;3179;54.350;10.102;2023-02-12T14:13:46;1.07;;;1.07;;
6292;SDS011;3179;54.350;10.102;2023-02-12T14:16:18;1.80;;;1.70;;
6292;SDS011;3179;54.350;10.102;2023-02-12T14:22:09;1.50;;;1.40;;
6292;SDS011;3179;54.350;10.102;2023-02-12T14:27:41;2.07;;;1.70;;
6292;SDS011;3179;54.350;10.102;2023-02-12T14:30:22;2.13;;;1.40;;
6292;SDS011;3179;54.350;10.102;2023-02-12T14:35:48;1.57;;;1.47;;
6292;SDS011;3179;54.350;10.102;2023-02-12T14:41:27;2.10;;;2.00;;
6292;SDS011;3179;54.350;10.102;2023-02-12T14:47:12;1.50;;;1.40;;
6292;SDS011;3179;54.350;10.102;2023-02-12T14:50:04;2.23;;;2.03;;
6292;SDS011;3179;54.350;10.102;2023-02-12T14:52:38;1.60;;;1.43;;
6292;SDS011;3179;54.350;10.102;2023-02-12T14:55:17;1.60;;;1.50;;
6292;SDS011;3179;54.350;10.102;2023-02-12T14:57:47;1.13;;;1.13;;
6292;SDS011;3179;54.350;10.102;2023-02-12T15:00:22;1.53;;;1.40;;
6292;SDS011;3179;54.350;10.102;2023-02-12T15:02:53;1.40;;;1.30;;
6292;SDS011;3179;54.350;10.102;2023-02-12T15:05:26;1.50;;;1.40;;
6292;SDS011;3179;54.350;10.102;2023-02-12T15:07:58;1.30;;;1.20;;
6292;SDS011;3179;54.350;10.102;2023-02-12T15:10:28;1.33;;;1.23;;
6292;SDS011;3179;54.350;10.102;2023-02-12T15:13:01;1.77;;;1.20;;
6292;SDS011;3179;54.350;10.102;2023-02-12T15:15:36;1.03;;;1.00;;
6292;SDS011;3179;54.350;10.102;2023-02-12T15:18:10;1.50;;;1.40;;
6292;SDS011;3179;54.350;10.102;2023-02-12T15:20:44;1.30;;;1.20;;
6292;SDS011;3179;54.350;10.102;2023-02-12T15:23:31;1.60;;;1.50;;
6292;SDS011;3179;54.350;10.102;2023-02-12T15:25:59;1.50;;;1.40;;
6292;SDS011;3179;54.350;10.102;2023-02-12T15:28:28;1.97;;;1.80;;
6292;SDS011;3179;54.350;10.102;2023-02-12T15:30:59;1.50;;;1.40;;
6292;SDS011;3179;54.350;10.102;2023-02-12T15:33:27;1.00;;;1.00;;
6292;SDS011;3179;54.350;10.102;2023-02-12T15:35:58;1.50;;;1.40;;
6292;SDS011;3179;54.350;10.102;2023-02-12T15:38:28;0.90;;;0.90;;
6292;SDS011;3179;54.350;10.102;2023-02-12T15:40:58;1.33;;;1.23;;
6292;SDS011;3179;54.350;10.102;2023-02-12T15:43:27;1.33;;;1.33;;
6292;SDS011;3179;54.350;10.102;2023-02-12T15:45:59;1.77;;;1.67;;
6292;SDS011;3179;54.350;10.102;2023-02-12T15:48:28;1.57;;;1.47;;